Time;durP1;ratioP1;P1;durP2;ratioP2;P2;SDS_P1;SDS_P2;PMS_P1;PMS_P2;Temp;Humidity;BMP_temperature;BMP_pressure;BME280_temperature;BME280_humidity;BME280_pressure;Samples;Min_cycle;Max_cycle;Signal;HPM_P1;HPM_P2
2022/08/26 00:04:17;;;;;;;15.90;6.30;;;;;;;22.71;56.80;98887.98;238226;1190;139016;-59
2022/08/26 00:09:21;;;;;;;17.70;6.80;;;;;;;22.65;56.90;98887.43;238230;1191;139333;-59
2022/08/26 00:14:26;;;;;;;16.20;6.50;;;;;;;22.61;57.16;98889.69;238226;1192;141510;-60
2022/08/26 00:19:33;;;;;;;15.10;7.20;;;;;;;22.55;57.27;98887.33;238868;1191;139054;-58
2022/08/26 00:24:36;;;;;;;18.60;7.90;;;;;;;22.49;57.48;98885.25;238912;1190;140287;-59
2022/08/26 00:29:39;;;;;;;15.30;7.20;;;;;;;22.42;57.56;98881.67;238435;1191;139087;-59
2022/08/26 00:34:42;;;;;;;16.90;6.90;;;;;;;22.34;57.71;98884.24;237568;1191;138762;-59
2022/08/26 00:39:45;;;;;;;13.40;7.10;;;;;;;22.25;57.91;98886.88;237539;1192;139532;-59
2022/08/26 00:44:49;;;;;;;16.20;7.00;;;;;;;22.15;58.07;98888.55;238827;1190;139000;-59
2022/08/26 00:49:55;;;;;;;15.80;5.90;;;;;;;22.10;58.23;98888.17;238056;1190;140244;-59
2022/08/26 00:55:18;;;;;;;20.50;7.10;;;;;;;22.07;58.27;98883.54;238828;1192;140497;-59
2022/08/26 01:00:26;;;;;;;13.40;6.30;;;;;;;22.00;58.53;98887.80;238012;1192;139155;-59
2022/08/26 01:05:29;;;;;;;13.50;6.00;;;;;;;21.94;58.54;98892.55;237047;1190;139470;-59
2022/08/26 01:10:32;;;;;;;16.70;6.60;;;;;;;21.88;58.74;98891.02;238718;1192;139355;-58
2022/08/26 01:15:46;;;;;;;15.90;6.70;;;;;;;21.83;58.83;98896.70;238876;1190;139901;-59
2022/08/26 01:21:26;;;;;;;15.70;6.70;;;;;;;21.77;58.94;98895.57;238385;1190;140143;-59
2022/08/26 01:26:39;;;;;;;11.70;5.90;;;;;;;21.69;59.02;98893.91;238564;1190;139747;-58
2022/08/26 01:31:45;;;;;;;17.70;5.70;;;;;;;21.64;59.13;98891.96;238046;1190;140203;-59
2022/08/26 01:36:53;;;;;;;15.90;6.00;;;;;;;21.62;59.26;98888.33;239015;1190;140446;-59
2022/08/26 01:41:58;;;;;;;13.00;6.40;;;;;;;21.62;59.37;98887.96;238695;1192;139775;-59
2022/08/26 01:47:06;;;;;;;14.50;6.40;;;;;;;21.61;59.38;98888.49;239037;1190;139285;-57
2022/08/26 01:52:13;;;;;;;14.80;6.50;;;;;;;21.58;59.46;98884.98;238022;1190;139367;-58
2022/08/26 01:57:18;;;;;;;16.20;6.00;;;;;;;21.54;59.49;98887.40;238113;1191;139173;-59
2022/08/26 02:02:21;;;;;;;;;;;;;;;21.46;59.42;98886.80;238601;1190;139149;-59
2022/08/26 02:07:27;;;;;;;17.30;6.00;;;;;;;21.34;59.46;98883.98;238993;1192;125317;-59
2022/08/26 02:12:30;;;;;;;19.70;5.80;;;;;;;21.25;59.61;98886.17;238332;1192;139680;-59
2022/08/26 02:17:42;;;;;;;13.10;5.60;;;;;;;21.19;59.65;98889.48;238860;1191;139125;-60
2022/08/26 02:22:46;;;;;;;16.30;5.60;;;;;;;21.15;59.63;98891.27;238705;1190;140173;-58
2022/08/26 02:27:49;;;;;;;13.90;5.90;;;;;;;21.16;59.85;98890.48;238264;1190;139954;-59
2022/08/26 02:32:53;;;;;;;15.80;5.80;;;;;;;21.12;59.71;98890.38;238823;1190;139980;-59
2022/08/26 02:37:59;;;;;;;15.90;6.20;;;;;;;21.01;59.79;98884.63;238501;1190;142022;-59
2022/08/26 02:43:02;;;;;;;13.60;6.00;;;;;;;20.95;59.91;98882.83;237897;1190;139176;-58
2022/08/26 02:48:16;;;;;;;10.60;5.50;;;;;;;20.91;59.97;98882.34;237880;1190;139423;-58
2022/08/26 02:53:20;;;;;;;15.30;6.00;;;;;;;20.83;60.00;98876.01;238671;1191;139144;-59
2022/08/26 02:58:27;;;;;;;11.30;6.20;;;;;;;20.72;60.05;98875.16;238904;1190;139550;-59
2022/08/26 03:03:30;;;;;;;17.20;5.80;;;;;;;20.65;60.23;98874.11;238918;1190;139791;-59
2022/08/26 03:08:34;;;;;;;15.00;5.50;;;;;;;20.60;60.22;98868.96;238903;1191;139905;-59
2022/08/26 03:13:38;;;;;;;14.00;5.60;;;;;;;20.59;60.35;98872.46;238975;1190;139108;-60
2022/08/26 03:18:41;;;;;;;13.90;5.60;;;;;;;20.59;60.57;98872.98;238624;1191;139562;-58
2022/08/26 03:23:48;;;;;;;14.20;6.20;;;;;;;20.61;60.70;98866.09;238094;1191;139375;-59
2022/08/26 03:34:14;;;;;;;17.60;5.90;;;;;;;20.53;60.49;98868.16;238622;1190;139811;-57
2022/08/26 03:39:17;;;;;;;9.80;5.30;;;;;;;20.43;60.61;98869.40;238117;1192;139677;-60
2022/08/26 03:44:20;;;;;;;10.40;5.10;;;;;;;20.36;60.70;98869.94;238753;1192;139116;-57
2022/08/26 03:49:23;;;;;;;10.90;5.50;;;;;;;20.32;60.64;98867.85;238909;1191;139484;-59
2022/08/26 03:54:30;;;;;;;17.60;5.90;;;;;;;20.28;60.67;98868.45;238829;1191;139624;-59
2022/08/26 03:59:33;;;;;;;17.70;5.20;;;;;;;20.29;60.91;98871.19;239045;1190;138841;-60
2022/08/26 04:04:36;;;;;;;16.70;5.60;;;;;;;20.30;60.97;98874.88;238265;1191;139048;-58
2022/08/26 04:09:39;;;;;;;15.20;6.00;;;;;;;20.31;60.91;98873.67;238928;1190;139125;-59
2022/08/26 04:14:42;;;;;;;10.10;4.90;;;;;;;20.32;60.93;98876.17;238661;1192;140841;-59
2022/08/26 04:19:46;;;;;;;12.10;5.60;;;;;;;20.29;60.91;98876.08;238976;1190;142308;-59
2022/08/26 04:24:49;;;;;;;15.20;6.10;;;;;;;20.27;60.96;98879.17;238583;1192;139102;-59
2022/08/26 04:29:52;;;;;;;10.70;4.70;;;;;;;20.26;61.05;98883.23;238772;1190;139086;-59
2022/08/26 04:34:57;;;;;;;11.00;4.80;;;;;;;20.30;61.03;98884.08;238959;1190;139797;-59
2022/08/26 04:40:03;;;;;;;15.10;5.80;;;;;;;20.36;61.10;98879.73;238856;1192;152995;-58
2022/08/26 04:45:08;;;;;;;18.60;6.00;;;;;;;20.40;61.15;98873.88;238724;1192;139891;-58
2022/08/26 04:50:14;;;;;;;45.00;7.00;;;;;;;20.43;61.16;98867.03;238553;1191;139292;-58
2022/08/26 04:55:21;;;;;;;44.40;7.60;;;;;;;20.47;60.93;98863.39;238662;1192;139600;-59
2022/08/26 05:00:43;;;;;;;42.90;7.20;;;;;;;20.54;60.76;98864.30;238717;1191;139865;-58
2022/08/26 05:05:48;;;;;;;44.40;7.60;;;;;;;20.58;60.56;98862.27;238469;1192;141397;-59
2022/08/26 05:10:54;;;;;;;51.90;7.70;;;;;;;20.64;60.45;98868.27;238623;1192;139155;-58
2022/08/26 05:16:04;;;;;;;60.80;9.90;;;;;;;20.68;60.37;98866.76;239091;1190;139075;-59
2022/08/26 05:21:14;;;;;;;56.70;10.20;;;;;;;20.70;60.27;98866.77;238828;1191;141233;-59
2022/08/26 05:26:18;;;;;;;25.40;7.60;;;;;;;20.74;60.30;98872.62;238326;1191;139979;-59
2022/08/26 05:31:29;;;;;;;15.90;5.70;;;;;;;20.85;60.21;98876.11;238619;1192;140115;-58
2022/08/26 05:36:34;;;;;;;12.60;4.80;;;;;;;20.97;60.07;98875.88;238532;1192;139953;-58
2022/08/26 05:41:40;;;;;;;15.40;5.70;;;;;;;21.09;59.94;98873.36;238941;1190;139251;-58
2022/08/26 05:46:44;;;;;;;13.60;5.00;;;;;;;21.19;59.73;98872.63;238370;1192;139112;-58
2022/08/26 05:51:48;;;;;;;17.20;5.30;;;;;;;21.27;59.57;98871.39;239058;1190;139969;-57
2022/08/26 05:56:52;;;;;;;16.70;5.40;;;;;;;21.35;59.46;98869.65;237007;1192;139648;-59
2022/08/26 06:01:55;;;;;;;15.30;5.10;;;;;;;21.42;59.41;98866.55;238585;1192;139534;-59
2022/08/26 06:06:58;;;;;;;13.10;5.10;;;;;;;21.49;59.35;98860.91;238709;1192;139559;-59
2022/08/26 06:12:02;;;;;;;20.00;5.80;;;;;;;21.60;59.24;98865.86;239046;1190;139001;-58
2022/08/26 06:17:05;;;;;;;14.50;4.90;;;;;;;21.67;58.85;98861.27;239004;1190;139697;-60
2022/08/26 06:25:36;;;;;;;16.80;5.50;;;;;;;21.73;58.55;98867.29;239042;1192;139634;-58
2022/08/26 06:27:35;;;;;;;16.10;5.40;;;;;;;21.81;58.40;98863.46;238783;1190;139542;-59
2022/08/26 06:32:38;;;;;;;16.90;5.20;;;;;;;21.86;58.17;98866.47;237994;1192;139676;-58
2022/08/26 06:37:42;;;;;;;15.40;5.50;;;;;;;21.91;58.10;98863.11;238697;1192;139674;-59
2022/08/26 06:42:45;;;;;;;14.10;5.50;;;;;;;21.96;57.95;98863.23;237225;1190;139134;-59
2022/08/26 06:47:48;;;;;;;18.30;5.00;;;;;;;21.99;57.91;98863.06;237404;1191;138879;-59
2022/08/26 06:52:53;;;;;;;14.70;5.30;;;;;;;22.01;57.88;98862.69;237791;1192;138948;-59
2022/08/26 06:57:58;;;;;;;;;;;;;;;22.06;57.99;98865.17;238778;1191;140289;-59
2022/08/26 07:03:03;;;;;;;17.40;5.60;;;;;;;22.13;58.05;98865.45;238905;1191;125362;-59
2022/08/26 07:08:06;;;;;;;16.40;5.60;;;;;;;22.21;57.93;98869.17;238560;1192;139367;-60
2022/08/26 07:13:11;;;;;;;13.70;5.10;;;;;;;22.27;57.81;98867.19;237271;1191;140117;-58
2022/08/26 07:18:14;;;;;;;16.60;5.80;;;;;;;22.34;57.79;98861.38;238981;1190;139229;-60
2022/08/26 07:23:17;;;;;;;13.40;6.00;;;;;;;22.45;57.92;98862.11;238869;1191;139827;-59
2022/08/26 07:28:21;;;;;;;17.60;6.50;;;;;;;22.54;57.96;98856.48;239082;1191;139386;-58
2022/08/26 07:33:24;;;;;;;15.10;6.20;;;;;;;22.64;57.81;98852.84;237651;1191;139767;-58
2022/08/26 07:38:28;;;;;;;16.30;5.60;;;;;;;22.75;57.82;98852.52;239024;1190;139534;-59
2022/08/26 07:43:36;;;;;;;20.80;6.40;;;;;;;22.86;57.85;98850.96;238692;1192;139677;-58
2022/08/26 07:48:40;;;;;;;14.80;5.60;;;;;;;23.00;57.67;98844.46;238716;1192;140510;-59
2022/08/26 07:53:49;;;;;;;14.00;5.90;;;;;;;23.15;57.58;98846.33;237765;1192;140346;-59
2022/08/26 07:58:54;;;;;;;14.50;5.60;;;;;;;23.29;57.42;98845.93;238872;1191;139476;-58
2022/08/26 08:03:59;;;;;;;16.60;5.50;;;;;;;23.42;57.08;98846.27;238901;1192;140929;-58
2022/08/26 08:09:06;;;;;;;13.70;5.20;;;;;;;23.56;57.06;98845.98;237906;1191;139030;-57
2022/08/26 08:14:10;;;;;;;15.80;5.10;;;;;;;23.71;57.09;98841.86;239038;1190;139109;-60
2022/08/26 08:19:14;;;;;;;14.80;5.30;;;;;;;23.84;56.82;98832.34;238850;1191;140073;-56
2022/08/26 08:24:17;;;;;;;17.00;5.30;;;;;;;23.98;56.73;98832.38;238752;1192;141971;-58
2022/08/26 08:29:20;;;;;;;14.20;5.00;;;;;;;24.10;56.55;98831.16;237862;1192;140125;-60
2022/08/26 08:34:25;;;;;;;16.70;5.20;;;;;;;24.22;56.34;98825.56;238480;1191;139957;-57
2022/08/26 08:39:30;;;;;;;16.80;5.00;;;;;;;24.32;55.97;98823.27;238465;1192;139286;-57
2022/08/26 08:44:39;;;;;;;16.80;4.90;;;;;;;24.43;56.06;98822.41;238413;1192;139374;-60
2022/08/26 08:49:43;;;;;;;11.00;5.10;;;;;;;24.56;56.20;98820.53;238627;1192;139237;-60
2022/08/26 08:54:46;;;;;;;8.50;4.80;;;;;;;24.69;56.11;98816.41;238377;1191;139264;-60
2022/08/26 09:00:18;;;;;;;8.90;4.80;;;;;;;24.80;56.05;98815.86;238981;1191;139981;-59
2022/08/26 09:05:40;;;;;;;14.40;5.30;;;;;;;24.93;55.96;98808.80;238744;1191;139226;-60
2022/08/26 09:10:54;;;;;;;11.30;5.20;;;;;;;25.08;55.85;98808.25;238784;1191;139544;-60
2022/08/26 09:16:08;;;;;;;13.70;5.40;;;;;;;25.22;55.55;98803.06;239011;1190;139230;-58
2022/08/26 09:21:14;;;;;;;11.60;4.70;;;;;;;25.36;55.34;98801.73;238935;1190;139084;-58
2022/08/26 09:26:29;;;;;;;12.50;4.80;;;;;;;25.51;55.11;98797.63;238908;1190;139062;-57
2022/08/26 09:31:35;;;;;;;13.40;5.10;;;;;;;25.71;54.77;98793.99;239012;1190;140006;-58
2022/08/26 09:36:42;;;;;;;11.40;4.40;;;;;;;25.90;54.41;98787.87;238757;1190;139320;-58
2022/08/26 09:42:01;;;;;;;22.70;5.20;;;;;;;26.11;54.29;98783.68;238939;1191;139909;-58
2022/08/26 09:47:06;;;;;;;14.40;5.10;;;;;;;26.32;54.01;98781.81;238331;1192;142318;-58
2022/08/26 09:52:12;;;;;;;17.40;9.70;;;;;;;26.55;53.73;98778.67;238602;1192;139336;-58
2022/08/26 09:57:23;;;;;;;14.10;4.70;;;;;;;26.76;53.56;98772.52;238936;1190;140157;-58
2022/08/26 10:02:32;;;;;;;12.90;5.00;;;;;;;26.98;53.17;98768.54;238823;1190;139417;-58
2022/08/26 10:07:45;;;;;;;12.00;5.00;;;;;;;27.21;52.79;98765.02;238946;1190;140379;-57
2022/08/26 10:13:02;;;;;;;17.80;5.50;;;;;;;27.49;52.75;98759.73;238862;1190;139137;-58
2022/08/26 10:18:23;;;;;;;11.20;5.10;;;;;;;27.78;52.28;98759.59;238992;1190;140175;-58
2022/08/26 10:23:33;;;;;;;21.70;5.70;;;;;;;28.05;51.99;98755.84;238871;1192;138953;-57
2022/08/26 10:28:48;;;;;;;16.20;5.00;;;;;;;28.29;51.84;98750.42;238973;1191;140003;-59
2022/08/26 10:33:51;;;;;;;;;;;;;;;28.54;51.42;98750.55;239141;1190;140061;-57
2022/08/26 10:39:05;;;;;;;8.20;4.00;;;;;;;28.79;50.87;98751.05;238949;1190;125802;-60
2022/08/26 10:44:12;;;;;;;14.00;4.80;;;;;;;29.04;50.78;98744.05;238370;1191;139587;-60
2022/08/26 10:49:16;;;;;;;16.90;4.90;;;;;;;29.22;49.82;98733.92;238717;1192;139729;-60
2022/08/26 10:54:32;;;;;;;13.00;5.40;;;;;;;29.37;49.46;98735.20;238703;1192;139678;-60
2022/08/26 10:59:45;;;;;;;11.60;4.50;;;;;;;29.46;49.10;98724.07;238337;1192;139345;-60
2022/08/26 11:05:01;;;;;;;13.10;4.50;;;;;;;29.52;48.38;98723.52;238419;1192;139070;-60
2022/08/26 11:10:06;;;;;;;9.50;3.50;;;;;;;29.58;47.71;98718.17;238684;1192;139485;-61
2022/08/26 11:15:19;;;;;;;13.60;4.00;;;;;;;29.69;47.31;98710.45;238725;1191;139410;-60
2022/08/26 11:20:26;;;;;;;11.70;4.00;;;;;;;29.88;47.07;98712.90;238969;1190;140255;-58
2022/08/26 11:25:30;;;;;;;9.90;3.20;;;;;;;30.10;46.54;98714.89;237851;1190;139273;-58
2022/08/26 11:30:40;;;;;;;8.30;2.90;;;;;;;30.26;45.83;98710.55;237979;1191;139504;-60
2022/08/26 11:35:47;;;;;;;10.50;3.60;;;;;;;30.42;45.41;98706.49;238930;1192;139537;-58
2022/08/26 11:41:05;;;;;;;11.60;3.40;;;;;;;30.58;44.76;98699.30;238230;1192;138875;-58
2022/08/26 11:46:10;;;;;;;17.00;3.70;;;;;;;30.73;44.22;98690.09;239108;1190;139169;-57
2022/08/26 11:51:23;;;;;;;10.90;3.50;;;;;;;30.90;43.89;98686.72;238982;1191;139785;-59
2022/08/26 11:56:31;;;;;;;8.80;3.20;;;;;;;31.07;42.98;98683.58;238792;1192;140031;-58
2022/08/26 12:01:39;;;;;;;16.20;4.10;;;;;;;31.22;42.43;98678.85;237535;1191;139026;-61
2022/08/26 12:06:49;;;;;;;10.80;3.40;;;;;;;31.43;42.06;98671.73;238920;1190;139456;-59
2022/08/26 12:12:26;;;;;;;8.70;3.80;;;;;;;31.62;41.60;98665.88;238899;1192;140613;-58
2022/08/26 12:17:32;;;;;;;9.30;3.10;;;;;;;31.74;40.51;98664.93;238664;1192;139349;-58
2022/08/26 12:22:37;;;;;;;8.80;3.40;;;;;;;31.85;39.89;98653.68;238674;1191;139434;-61
2022/08/26 12:27:43;;;;;;;8.70;3.40;;;;;;;31.97;39.34;98648.02;238259;1191;139356;-59
2022/08/26 12:32:52;;;;;;;10.90;3.30;;;;;;;32.02;38.72;98650.44;239049;1191;139582;-59
2022/08/26 12:38:01;;;;;;;8.50;3.00;;;;;;;32.12;38.36;98650.59;238976;1191;139392;-59
2022/08/26 12:43:06;;;;;;;8.90;3.00;;;;;;;32.27;38.17;98643.11;237795;1191;139278;-59
2022/08/26 12:48:25;;;;;;;7.90;2.90;;;;;;;32.45;37.94;98640.45;238684;1192;138661;-60
2022/08/26 12:53:32;;;;;;;7.70;2.70;;;;;;;32.63;37.64;98630.75;238968;1191;138840;-59
2022/08/26 12:58:38;;;;;;;12.10;3.40;;;;;;;32.80;37.61;98625.86;237456;1192;138945;-59
2022/08/26 13:03:44;;;;;;;10.00;3.20;;;;;;;32.98;37.44;98622.27;238414;1190;139670;-59
2022/08/26 13:08:56;;;;;;;8.90;2.60;;;;;;;33.14;37.07;98614.27;238561;1190;139251;-59
2022/08/26 13:14:02;;;;;;;10.30;2.80;;;;;;;33.25;36.24;98616.85;238813;1191;139966;-59
2022/08/26 13:19:13;;;;;;;7.80;2.60;;;;;;;33.28;36.27;98613.87;237972;1192;139017;-59
2022/08/26 13:24:20;;;;;;;7.60;2.80;;;;;;;33.33;35.41;98609.14;238731;1192;139022;-59
2022/08/26 13:29:24;;;;;;;9.00;2.80;;;;;;;33.35;35.12;98604.77;238866;1191;139371;-59
2022/08/26 13:34:28;;;;;;;7.90;3.00;;;;;;;33.38;34.83;98601.67;237871;1190;139934;-60
2022/08/26 13:39:31;;;;;;;7.40;2.60;;;;;;;33.33;34.34;98597.89;238618;1192;139584;-60
2022/08/26 13:44:37;;;;;;;7.70;2.90;;;;;;;33.34;33.98;98598.90;238595;1192;139080;-59
2022/08/26 13:49:42;;;;;;;7.30;2.90;;;;;;;33.41;34.20;98596.34;238710;1192;139035;-59
2022/08/26 13:54:45;;;;;;;5.80;2.80;;;;;;;33.48;33.74;98593.48;239041;1190;140914;-59
2022/08/26 13:59:48;;;;;;;7.50;3.00;;;;;;;33.45;33.10;98591.50;237431;1190;139795;-58
2022/08/26 14:04:52;;;;;;;11.90;3.20;;;;;;;33.47;32.75;98592.36;238262;1190;139653;-60
2022/08/26 14:09:55;;;;;;;;;;;;;;;33.44;32.64;98582.48;239022;1192;139381;-59
2022/08/26 14:14:59;;;;;;;14.80;3.60;;;;;;;33.39;32.83;98579.61;238796;1191;126817;-59
2022/08/26 14:20:04;;;;;;;7.00;3.10;;;;;;;33.34;33.00;98581.30;238952;1190;139542;-58
2022/08/26 14:25:09;;;;;;;8.00;3.00;;;;;;;33.32;33.41;98574.43;238520;1190;139168;-60
2022/08/26 14:30:13;;;;;;;8.20;3.30;;;;;;;33.23;33.03;98573.46;238931;1191;139317;-59
2022/08/26 14:35:21;;;;;;;10.70;4.00;;;;;;;33.01;32.72;98566.94;238481;1192;140345;-59
2022/08/26 14:40:28;;;;;;;11.30;3.30;;;;;;;32.60;32.39;98576.46;239010;1190;139926;-59
2022/08/26 14:45:36;;;;;;;10.20;3.20;;;;;;;32.24;32.66;98573.82;239023;1190;139874;-59
2022/08/26 14:50:39;;;;;;;8.80;3.20;;;;;;;31.92;32.62;98574.34;238760;1190;142591;-59
2022/08/26 14:55:42;;;;;;;10.10;4.10;;;;;;;31.72;33.22;98575.46;238622;1191;139902;-59
2022/08/26 15:00:45;;;;;;;8.50;3.90;;;;;;;31.56;33.48;98576.17;238865;1190;139229;-59
2022/08/26 15:05:48;;;;;;;6.60;3.30;;;;;;;31.40;33.67;98577.52;239004;1192;139096;-59
2022/08/26 15:10:51;;;;;;;7.70;3.30;;;;;;;31.23;33.44;98577.84;238971;1190;139563;-59
2022/08/26 15:15:54;;;;;;;6.20;3.20;;;;;;;31.09;33.72;98582.08;238382;1192;138956;-59
2022/08/26 15:20:57;;;;;;;9.80;3.40;;;;;;;30.96;33.65;98577.25;238695;1192;139020;-59
2022/08/26 15:26:02;;;;;;;11.80;3.80;;;;;;;30.86;33.83;98579.02;238161;1192;140426;-60
2022/08/26 15:31:06;;;;;;;7.10;3.90;;;;;;;30.80;34.11;98577.31;238115;1192;140147;-59
2022/08/26 15:36:10;;;;;;;9.10;4.00;;;;;;;30.73;33.81;98573.38;238947;1191;139191;-59
2022/08/26 15:41:13;;;;;;;;;;;;;;;30.64;33.86;98572.44;238808;1192;138921;-59
2022/08/26 15:46:17;;;;;;;5.30;3.30;;;;;;;30.58;34.00;98573.65;238935;1192;125355;-59
2022/08/26 15:51:25;;;;;;;11.50;3.80;;;;;;;30.52;34.10;98572.78;238459;1192;139115;-59
2022/08/26 15:56:31;;;;;;;12.90;4.50;;;;;;;30.41;34.08;98568.48;238947;1190;140029;-59
2022/08/26 16:01:36;;;;;;;8.90;3.90;;;;;;;30.27;34.50;98567.85;238910;1190;139571;-60
2022/08/26 16:06:41;;;;;;;10.60;3.70;;;;;;;30.18;34.76;98566.33;238655;1192;139540;-58
2022/08/26 16:11:44;;;;;;;;;;;;;;;30.07;34.42;98562.77;238709;1192;139550;-58
2022/08/26 16:16:47;;;;;;;9.20;3.50;;;;;;;29.95;34.70;98562.23;239147;1192;125111;-59
2022/08/26 16:21:50;;;;;;;7.00;3.30;;;;;;;29.85;34.81;98566.92;239015;1190;139098;-59
2022/08/26 16:26:53;;;;;;;8.90;4.40;;;;;;;29.77;35.08;98564.49;238887;1192;139507;-59
2022/08/26 16:31:56;;;;;;;10.30;3.40;;;;;;;29.68;35.16;98561.15;238908;1191;139341;-60
2022/08/26 16:36:59;;;;;;;9.40;3.40;;;;;;;29.58;35.65;98557.11;239029;1190;139996;-59
2022/08/26 16:42:03;;;;;;;6.30;3.30;;;;;;;29.49;35.61;98554.65;238822;1191;139350;-59
2022/08/26 16:47:06;;;;;;;9.50;3.40;;;;;;;29.39;35.79;98554.50;238870;1192;139459;-59
2022/08/26 16:52:10;;;;;;;9.30;3.30;;;;;;;29.27;35.84;98553.89;238939;1190;139197;-58
2022/08/26 16:57:15;;;;;;;10.50;3.70;;;;;;;29.14;35.96;98549.94;238867;1190;139187;-59
2022/08/26 17:02:18;;;;;;;8.70;3.20;;;;;;;29.02;36.33;98550.10;238425;1190;139661;-59
2022/08/26 17:07:22;;;;;;;7.90;3.10;;;;;;;28.89;36.45;98549.86;238850;1190;139904;-59
2022/08/26 17:12:27;;;;;;;9.60;3.50;;;;;;;28.76;36.60;98545.84;238759;1192;138853;-59
2022/08/26 17:17:30;;;;;;;10.10;3.70;;;;;;;28.64;36.60;98545.45;238851;1190;139314;-59
2022/08/26 17:22:33;;;;;;;10.60;4.00;;;;;;;28.51;36.54;98544.88;239028;1192;139040;-59
2022/08/26 17:27:36;;;;;;;7.40;3.80;;;;;;;28.42;36.69;98539.52;238873;1190;139603;-59
2022/08/26 17:32:41;;;;;;;11.40;4.40;;;;;;;28.32;36.76;98540.48;238695;1190;139019;-59
2022/08/26 17:37:44;;;;;;;;;;;;;;;28.20;36.87;98544.23;238898;1192;139334;-59
2022/08/26 17:42:49;;;;;;;6.60;3.40;;;;;;;28.05;36.97;98544.11;238819;1190;126880;-58
2022/08/26 17:47:55;;;;;;;12.90;4.20;;;;;;;27.91;37.05;98545.64;238451;1190;139435;-59
2022/08/26 17:52:58;;;;;;;11.40;4.10;;;;;;;27.75;37.29;98544.02;238672;1191;139522;-59
2022/08/26 17:58:01;;;;;;;7.80;4.20;;;;;;;27.61;37.52;98541.54;238998;1192;140798;-59
2022/08/26 18:03:08;;;;;;;10.80;4.50;;;;;;;27.52;37.76;98545.02;238591;1190;139834;-58
2022/08/26 18:08:12;;;;;;;11.80;4.50;;;;;;;27.42;37.90;98548.55;237165;1192;139870;-58
2022/08/26 18:13:15;;;;;;;10.40;4.60;;;;;;;27.31;38.21;98555.11;237503;1192;139290;-60
2022/08/26 18:18:18;;;;;;;8.30;4.70;;;;;;;27.18;38.48;98556.56;238898;1191;139388;-60
2022/08/26 18:23:21;;;;;;;11.10;4.50;;;;;;;27.02;39.06;98555.82;238818;1191;139208;-59
2022/08/26 18:28:24;;;;;;;15.00;5.00;;;;;;;26.87;39.47;98559.02;238151;1191;139141;-59
2022/08/26 18:33:27;;;;;;;16.00;5.70;;;;;;;26.72;39.71;98561.17;238075;1192;139368;-60
2022/08/26 18:38:30;;;;;;;11.40;5.30;;;;;;;26.61;39.61;98561.05;238831;1190;139297;-59
2022/08/26 18:43:34;;;;;;;13.60;4.50;;;;;;;26.49;39.90;98559.41;238720;1190;139247;-59
2022/08/26 18:48:39;;;;;;;9.90;4.90;;;;;;;26.38;40.14;98560.52;238305;1191;139157;-59
2022/08/26 18:53:42;;;;;;;15.00;4.60;;;;;;;26.27;40.45;98566.84;238791;1191;138863;-59
2022/08/26 18:58:45;;;;;;;8.90;4.40;;;;;;;26.13;40.70;98569.70;238809;1192;139140;-58
2022/08/26 19:03:50;;;;;;;11.40;4.20;;;;;;;25.98;41.24;98565.55;238948;1191;140016;-59
2022/08/26 19:08:53;;;;;;;12.80;4.90;;;;;;;25.84;41.37;98562.37;238755;1192;138645;-59
2022/08/26 19:13:57;;;;;;;11.10;4.20;;;;;;;25.72;41.43;98564.82;238402;1190;139137;-59
2022/08/26 19:19:01;;;;;;;7.40;4.20;;;;;;;25.61;41.58;98558.80;238861;1191;139563;-60
2022/08/26 19:24:11;;;;;;;11.20;4.90;;;;;;;25.51;41.67;98555.51;238867;1190;139596;-59
2022/08/26 19:29:14;;;;;;;14.30;4.80;;;;;;;25.40;42.20;98557.73;238145;1190;139858;-59
2022/08/26 19:34:22;;;;;;;11.10;4.90;;;;;;;25.28;42.35;98555.27;237607;1190;138964;-59
2022/08/26 19:39:26;;;;;;;13.30;4.80;;;;;;;25.16;42.60;98557.88;238557;1192;139730;-60
2022/08/26 19:49:53;;;;;;;11.40;5.00;;;;;;;24.95;42.74;98558.22;238771;1191;138819;-59
2022/08/26 19:54:57;;;;;;;9.20;5.10;;;;;;;24.86;42.70;98556.39;238722;1191;139203;-59
2022/08/26 20:00:01;;;;;;;13.30;4.80;;;;;;;24.76;42.88;98562.61;238140;1192;140357;-58
2022/08/26 20:05:08;;;;;;;8.10;4.70;;;;;;;24.66;43.20;98563.95;238759;1190;141010;-59
2022/08/26 20:10:12;;;;;;;;;;;;;;;24.56;43.62;98567.60;237968;1190;139002;-59
2022/08/26 20:15:15;;;;;;;12.30;5.10;;;;;;;24.45;43.92;98570.88;239001;1190;125295;-59
2022/08/26 20:25:41;;;;;;;13.80;5.60;;;;;;;24.27;44.42;98571.83;238890;1192;140099;-60
2022/08/26 20:30:44;;;;;;;11.90;5.50;;;;;;;24.19;44.42;98577.59;238866;1190;139897;-60
2022/08/26 20:35:47;;;;;;;12.00;5.60;;;;;;;24.12;44.62;98585.04;238813;1191;139123;-59
2022/08/26 20:40:50;;;;;;;12.30;5.80;;;;;;;24.03;44.76;98588.20;239100;1191;139220;-59
2022/08/26 20:45:58;;;;;;;11.80;5.60;;;;;;;23.96;45.01;98591.69;239088;1191;139267;-59
2022/08/26 20:51:02;;;;;;;12.20;5.90;;;;;;;23.89;45.15;98596.09;237486;1192;138758;-61
2022/08/26 20:56:07;;;;;;;13.80;5.40;;;;;;;23.81;45.53;98600.94;238537;1190;140331;-60
2022/08/26 21:01:20;;;;;;;16.60;6.00;;;;;;;23.72;46.10;98604.63;239016;1190;139205;-59
2022/08/26 21:06:23;;;;;;;14.30;6.10;;;;;;;23.62;46.56;98606.06;238911;1191;139766;-59
2022/08/26 21:11:27;;;;;;;13.90;6.00;;;;;;;23.52;47.02;98607.07;237875;1192;139236;-59
2022/08/26 21:16:30;;;;;;;18.70;6.00;;;;;;;23.41;47.36;98604.64;238086;1192;138744;-59
2022/08/26 21:21:34;;;;;;;14.40;6.30;;;;;;;23.28;47.63;98607.64;238770;1192;140003;-59
2022/08/26 21:26:37;;;;;;;12.10;6.20;;;;;;;23.18;47.99;98605.65;238847;1190;139898;-59
2022/08/26 21:31:41;;;;;;;14.80;6.10;;;;;;;23.08;48.36;98604.48;238846;1190;139128;-60
2022/08/26 21:36:48;;;;;;;12.30;6.00;;;;;;;22.99;48.67;98607.83;238973;1190;139173;-59
2022/08/26 21:41:51;;;;;;;10.90;5.50;;;;;;;22.92;48.90;98611.17;238454;1191;139679;-59
2022/08/26 21:46:54;;;;;;;14.20;5.30;;;;;;;22.82;49.06;98613.17;239004;1192;139173;-59
2022/08/26 21:51:57;;;;;;;9.80;5.90;;;;;;;22.73;49.26;98615.73;238070;1190;140159;-59
2022/08/26 21:57:01;;;;;;;13.60;5.80;;;;;;;22.60;49.35;98612.80;238814;1190;139142;-61
2022/08/26 22:02:06;;;;;;;12.90;5.10;;;;;;;22.51;49.45;98617.14;239002;1191;139425;-59
2022/08/26 22:07:09;;;;;;;11.10;5.60;;;;;;;22.45;49.66;98610.01;238694;1190;140158;-59
2022/08/26 22:12:12;;;;;;;15.30;6.20;;;;;;;22.39;49.81;98611.10;238986;1191;139491;-59
2022/08/26 22:17:15;;;;;;;17.20;6.40;;;;;;;22.34;50.03;98614.39;238719;1191;139662;-60
2022/08/26 22:22:19;;;;;;;8.90;5.80;;;;;;;22.28;50.14;98613.08;239013;1190;139293;-60
2022/08/26 22:27:22;;;;;;;14.50;6.00;;;;;;;22.24;50.31;98615.63;238876;1189;139141;-59
2022/08/26 22:32:26;;;;;;;12.40;6.00;;;;;;;22.18;50.54;98611.25;238538;1190;139439;-60
2022/08/26 22:37:28;;;;;;;9.60;5.80;;;;;;;22.11;50.66;98612.02;238526;1191;139562;-59
2022/08/26 22:42:33;;;;;;;13.40;6.80;;;;;;;22.04;50.76;98610.30;238341;1191;139795;-59
2022/08/26 22:47:36;;;;;;;11.90;6.30;;;;;;;21.99;50.88;98606.92;238931;1191;139479;-60
2022/08/26 22:52:39;;;;;;;14.20;5.70;;;;;;;21.94;50.93;98603.72;238856;1192;138947;-59
2022/08/26 22:57:43;;;;;;;14.40;6.10;;;;;;;21.88;51.16;98603.66;238060;1190;139703;-60
2022/08/26 23:02:46;;;;;;;12.30;5.80;;;;;;;21.84;51.22;98604.35;239020;1190;139750;-59
2022/08/26 23:07:49;;;;;;;11.30;6.50;;;;;;;21.78;51.41;98600.19;239056;1190;139497;-59
2022/08/26 23:12:52;;;;;;;12.10;6.10;;;;;;;21.72;51.65;98595.23;238852;1190;139707;-59
2022/08/26 23:17:56;;;;;;;12.10;6.30;;;;;;;21.67;51.79;98596.55;238843;1192;139436;-59
2022/08/26 23:23:04;;;;;;;10.70;6.20;;;;;;;21.60;51.86;98597.30;238102;1191;139938;-60
2022/08/26 23:28:07;;;;;;;13.90;6.20;;;;;;;21.54;51.99;98594.94;237717;1191;139797;-59
2022/08/26 23:33:11;;;;;;;12.30;6.10;;;;;;;21.49;52.15;98591.52;238843;1190;139295;-59